Groton, Vermont
Current Conditions -  °F | °C
As of 3:51 AM on Monday 20 Oct 2014 (Local Time) from KMPV Reporting Station
Broken Clouds Broken Clouds  
Wind Chill:   Ceiling: 3900
Heat Index:   Visibility: 10mi
Dew Point: -3°   Wind: 0mph
Humidity: 73%   Direction: NA
Pressure: 29.99"   Gusts: NA
Location:  44.21°N, 72.2°W
Report Text: KMPV 200751Z AUTO 00000KT 10SM BKN039 01/M03 A2999 RMK AO2 SLP168 T00111033 $
Loading
Personal Weather Stations






























Interactive Weather Map
Tropical Storm Tracking
New forecast layout! Learn more

10-Day Weather Forecast

Advertisements
Track Severe Weather on mobile